Pagina principale
METAR-TAF:

METAR-TAF

Aeroporti :

Aeroporto di Treviso-Istrana

Treviso, Italia

latitudine: 45-41N, longitudine: 012-06E, altezza: 45 m

Osservazione

Il bollettino è stato emesso 1 ora e 1 minuti fa, alle 22:55 UTC
Vento calmo
Temperature 14°C
Umidità 88%
Pressione 1007 hPa
Visibilità 10 km o più
Nuvoloso ad un'altezza di 8000 ft

METAR: LIPS 152255Z 00000KT 9999 BKN080 14/12 Q1007 RMK BKN VIS MIN 9999 WIND THR26 00000KT WIND THR08 00000KT BLU

Ora: 01:56 (23:56 UTC)

Previsione

Il bollettino è stato emesso 56 minuti fa, alle 23:00 UTC
Previsione valida dal 16 alle 00 UTC al 16 alle 09 UTC
Vento 3 kt da direzioni variabili
Visibilità 10 km o più
Nubi sparse ad un'altezza di 2500 ft
Nubi sparse ad un'altezza di 8000 ft
Temporaneamente
dal 16 alle 01 UTC al 16 alle 03 UTC
Visibilità: 5000 m
foschia

TAF: LIPS 152300Z 1600/1609 VRB03KT 9999 SCT025 SCT080 TEMPO 1601/1603 5000 BR

Osservazioni e previsioni meteorologiche di più di 4000 aeroporti (messaggi METAR e TAF).

Le stazioni disponibili sono rappresentate dai dischi gialli e rossi sulla carta.

Puntare il mouse per vedere il nome della stazione.

Clicca sopra per visualizzare le osservazioni e previsioni meteorologiche.

Per cambiare la mappa : fare clic sui pulsanti verdi con una croce nera per ingrandire, il pulsante verde con un trattino per diminuire, o sulla freccia verde per le mappe adiacenti.


METAR-TAF: